Station: Minnipa Rs

  Atmospheric Gas Attenuation - ITU Rec 676-11   --------------- db/100km ---------------
Date Time Temp RH % AH g/m3 Dew Point Wind Direction Speed kph Gust kph Barometer mB Rainfall Since 9am 24GHz 47GHz 76GHz 122GHz 134GHz 241GHz
21 18:20 12.6 76 8.41 8.5 24 30 1010.8 0.8 19.2 25.8 39.5 103.7 97.2 334.1
21 18:10 12.7 77 8.57 8.8 22 28 1010.6 0.8 19.6 26.1 40.1 105.3 99.2 341.1
21 18:00 13 75 8.51 8.7 30 41 1010.4 0.8 19.4 25.9 39.7 104.2 98.0 337.0
21 17:50 13 78 8.85 9.3 24 30 1010.4 0.8 20.2 26.4 41.1 107.9 102.5 352.9
21 17:40 13 78 8.85 9.3 32 35 1010.2 0.8 20.2 26.4 41.1 107.9 102.5 352.8
21 17:30 12.9 79 8.9 9.4 28 39 1010 0.8 20.3 26.5 41.3 108.6 103.3 355.6
21 17:20 12.6 82 9.07 9.6 30 37 1010 0.8 20.7 26.9 42.2 110.9 106.0 365.0
21 17:10 12.2 87 9.39 10.1 33 39 1010.1 0.8 21.4 27.6 43.8 115.0 111.0 382.4
21 17:00 12.2 84 9.07 9.6 32 48 1009.8 0.6 20.7 27.0 42.4 111.4 106.6 366.9
21 16:50 11.7 81 8.47 8.6 33 41 1009.7 0.6 19.4 26.2 40.2 105.5 99.1 340.5
21 16:40 13.9 70 8.39 8.5 37 43 1009.6 0.2 19.1 25.4 38.7 101.7 95.2 327.4
21 16:30 15.6 57 7.58 7.1 35 50 1009 0 17.3 23.6 34.8 91.2 82.9 284.7
21 16:20 15.1 63 8.13 8.1 35 46 1009.2 0 18.5 24.6 37.1 97.4 90.4 310.7
21 16:10 14.8 64 8.11 8.1 37 44 1009.1 0 18.5 24.7 37.2 97.6 90.5 311.0
21 16:00 14.9 66 8.41 8.6 35 46 1009 0 19.1 25.1 38.3 100.6 94.2 324.0
21 15:50 15 68 8.72 9.1 32 43 1009.2 0 19.8 25.6 39.5 103.7 98.1 337.7
21 15:40 14.2 67 8.18 8.2 39 46 1009 0 18.7 25.0 37.7 99.0 92.1 316.5
21 15:30 16 55 7.49 7 44 57 1008.4 0 17.1 23.4 34.3 89.8 81.4 279.2
21 15:20 17.4 48 7.11 6.3 43 52 1008.6 0 16.3 22.5 32.3 84.6 75.4 258.5
21 15:10 18.5 45 7.12 6.4 33 50 1008.5 0 16.2 22.2 31.9 83.6 74.5 255.4
21 15:00 17.9 49 7.48 7 39 59 1008.1 0 17.0 22.9 33.4 87.6 79.3 272.2
21 14:50 17.7 48 7.24 6.6 44 54 1008.4 0 16.5 22.6 32.7 85.5 76.7 262.9
21 14:40 16.9 49 7.05 6.1 44 56 1008.4 0 16.2 22.5 32.3 84.5 75.2 257.6
21 14:30 16.9 49 7.05 6.1 43 57 1008.1 0 16.2 22.5 32.3 84.5 75.2 257.5
21 14:20 17.4 50 7.41 6.9 41 56 1008.4 0 16.9 22.9 33.4 87.5 79.0 271.0
21 14:10 17.8 49 7.44 7 37 43 1008.3 0 16.9 22.8 33.3 87.3 78.9 270.9
21 14:00 17.3 47 6.92 5.9 43 54 1008.1 0 15.9 22.2 31.7 82.8 73.2 250.8
21 13:50 17.6 43 6.45 4.9 41 48 1008.3 0 14.9 21.5 29.9 78.1 67.5 230.8
21 13:40 18.3 44 6.88 5.8 44 56 1008.3 0 15.7 21.9 31.1 81.5 71.9 246.2
21 13:30 19.2 44 7.25 6.7 43 61 1008 0 16.5 22.2 32.1 84.0 75.3 258.4
21 13:20 18.6 43 6.84 5.8 46 57 1008.2 0 15.7 21.8 30.9 80.8 71.1 243.6
21 13:10 17.5 47 7.01 6.1 39 46 1008.2 0 16.1 22.3 31.9 83.5 74.1 254.0
21 13:00 17.7 46 6.94 5.9 46 61 1008.1 0 15.9 22.1 31.6 82.6 73.1 250.4
21 12:50 18.4 46 7.23 6.6 39 52 1008.2 0 16.5 22.4 32.3 84.7 75.9 260.2
21 12:40 18 45 6.91 5.9 44 54 1008.2 0 15.8 22.0 31.4 82.0 72.5 248.3
21 12:30 18.1 43 6.64 5.3 43 57 1008 0 15.2 21.6 30.4 79.4 69.3 237.0
21 12:20 17.6 44 6.6 5.2 41 50 1008.4 0 15.2 21.7 30.4 79.5 69.3 236.9
21 12:10 18.1 47 7.26 6.6 39 57 1008.3 0 16.6 22.5 32.6 85.3 76.5 262.4
21 12:00 17 48 6.95 5.9 41 56 1008.1 0 15.9 22.3 31.9 83.4 73.9 253.0
21 11:50 17.6 46 6.9 5.9 30 39 1008.5 0 15.8 22.1 31.5 82.4 72.8 249.2
21 11:40 17.6 42 6.3 4.5 43 50 1008.5 0 14.6 21.3 29.4 76.8 65.8 224.8
21 11:30 16.9 44 6.33 4.6 43 65 1008.3 0 14.6 21.5 29.7 77.7 66.7 227.9
21 11:20 17.1 48 6.99 6 50 61 1008.3 0 16.0 22.4 32.0 83.7 74.3 254.4
21 11:10 17.4 43 6.37 4.7 43 50 1008.4 0 14.7 21.4 29.7 77.6 66.8 228.1
21 11:00 18.4 42 6.61 5.3 39 56 1008.2 0 15.2 21.5 30.2 78.8 68.7 234.9
21 10:50 17.5 47 7.01 6.1 41 50 1008.3 0 16.1 22.3 31.9 83.5 74.1 254.0
21 10:40 17.2 51 7.47 7 37 46 1008.4 0 17.0 23.0 33.7 88.3 79.9 274.2
21 10:30 16.2 51 7.03 6.1 39 52 1008.2 0 16.1 22.6 32.5 85.1 75.6 258.9
21 10:20 16.7 47 6.68 5.3 41 46 1008.2 0 15.4 22.0 31.0 81.2 71.0 242.8
21 10:10 16.1 49 6.72 5.4 44 48 1008.3 0 15.5 22.2 31.4 82.2 72.0 246.3
21 10:00 16.7 46 6.54 5 39 57 1008.1 0 15.1 21.8 30.5 79.8 69.3 237.0
21 09:50 16.6 45 6.36 4.6 41 46 1008.1 0 14.7 21.6 29.9 78.2 67.3 229.9
21 09:40 16.1 47 6.44 4.8 35 39 1008.1 0 14.9 21.8 30.4 79.5 68.7 234.6
21 09:30 16.1 46 6.31 4.5 37 56 1007.9 0 14.6 21.6 29.9 78.2 67.1 229.2
21 09:20 16.1 47 6.44 4.8 35 43 1008 0 14.9 21.8 30.4 79.5 68.7 234.6
21 09:10 15.6 44 5.85 3.4 41 48 1007.9 0 13.7 21.1 28.5 74.4 62.2 211.8
21 09:00 15.4 43 5.65 2.9 30 43 1007.7 0 13.3 20.8 27.9 72.7 60.0 204.2
21 08:50 14.4 43 5.32 2 39 44 1008 0 12.6 20.6 27.1 70.5 57.0 193.4
21 08:40 14 42 5.07 1.3 32 37 1008 0 12.1 20.3 26.3 68.5 54.4 184.2
21 08:30 13.7 42 4.97 1 33 43 1007.7 0 11.9 20.2 26.1 67.8 53.4 180.8
21 08:20 13.2 43 4.94 0.9 37 43 1007.7 0 11.8 20.3 26.1 68.0 53.4 180.7
21 08:10 13 44 4.99 1 35 39 1007.6 0 11.9 20.4 26.4 68.6 54.1 183.2
21 08:00 12.7 45 5.01 1.1 32 43 1007.2 0 12.0 20.5 26.5 69.0 54.5 184.6
21 07:50 12.1 47 5.04 1.1 30 33 1007.3 0 12.1 20.7 26.8 69.8 55.3 187.2
21 07:40 11.7 49 5.13 1.4 28 35 1007.3 0 12.3 20.9 27.3 71.0 56.6 191.9
21 07:30 11.3 50 5.1 1.3 28 39 1007.1 0 12.2 20.9 27.3 71.1 56.6 191.5
21 07:20 10.9 51 5.07 1.2 28 30 1007.2 0 12.2 21.0 27.3 71.1 56.5 191.3
21 07:10 10.4 54 5.21 1.5 28 32 1007.1 0 12.5 21.3 28.0 72.9 58.5 198.3
21 07:00 9.9 56 5.23 1.5 26 35 1006.8 0 12.6 21.4 28.2 73.6 59.1 200.4
21 06:50 9.6 57 5.22 1.5 28 35 1006.9 0 12.5 21.5 28.3 73.8 59.2 200.7
21 06:40 9.3 60 5.39 1.9 26 30 1006.8 0 12.9 21.8 29.0 75.7 61.5 208.8
21 06:30 8.9 63 5.52 2.3 28 35 1006.6 0 13.2 22.1 29.6 77.4 63.5 215.4
21 06:20 8.6 67 5.76 2.8 26 32 1006.8 0 13.7 22.6 30.7 80.1 66.7 226.9
21 06:10 8.6 68 5.85 3 24 28 1006.8 0 13.9 22.7 31.0 81.0 67.9 230.9
21 06:00 8.5 70 5.98 3.4 26 35 1006.5 0 14.2 22.9 31.5 82.5 69.6 236.9
21 05:50 8.5 72 6.15 3.8 24 26 1006.5 0 14.6 23.2 32.2 84.2 71.8 244.5
21 05:40 8.3 75 6.32 4.1 24 30 1006.4 0 14.9 23.5 32.9 86.2 74.1 252.8
21 05:30 8.2 78 6.53 4.6 22 28 1006.1 0 15.4 23.9 33.8 88.5 76.9 262.7
21 05:20 7.8 80 6.53 4.6 20 24 1006.3 0 15.4 24.0 34.0 89.0 77.4 264.1
21 05:10 7.8 81 6.61 4.7 20 24 1006.4 0 15.6 24.1 34.3 89.8 78.4 267.8
21 04:50 7.5 83 6.65 4.8 20 22 1006.4 0 15.7 24.2 34.6 90.6 79.3 270.7
21 04:40 7.5 82 6.57 4.6 20 24 1006.4 0 15.5 24.1 34.3 89.8 78.2 266.9
21 04:30 7.5 82 6.57 4.6 22 26 1006.2 0 15.5 24.1 34.3 89.7 78.2 266.9
21 04:20 7.6 82 6.61 4.7 20 24 1006.4 0 15.6 24.2 34.4 90.1 78.6 268.5
21 04:10 7.5 83 6.65 4.8 22 24 1006.3 0 15.7 24.2 34.6 90.6 79.2 270.6
21 04:00 7.5 82 6.57 4.6 20 24 1006.2 0 15.5 24.1 34.3 89.7 78.2 266.9
21 03:50 7.5 82 6.57 4.6 20 22 1006.5 0 15.5 24.1 34.3 89.8 78.2 267.0
21 03:40 7.4 82 6.52 4.5 20 24 1006.5 0 15.4 24.1 34.1 89.3 77.6 265.0
21 03:30 7.5 81 6.49 4.5 20 26 1006.3 0 15.3 24.0 34.0 88.9 77.1 263.2
21 03:20 7.4 81 6.44 4.4 20 24 1006.6 0 15.2 23.9 33.8 88.5 76.6 261.3
21 03:10 7.4 81 6.44 4.4 20 22 1006.6 0 15.2 23.9 33.8 88.5 76.6 261.3
21 03:00 7.6 80 6.45 4.4 19 24 1006.5 0 15.3 23.9 33.8 88.4 76.5 261.1
21 02:50 7.7 79 6.41 4.3 19 22 1006.8 0 15.2 23.8 33.6 87.9 75.9 259.0
21 02:40 7.7 79 6.41 4.3 19 22 1006.9 0 15.2 23.8 33.6 87.9 75.9 259.0
21 02:30 7.6 80 6.45 4.4 17 20 1007 0 15.3 23.9 33.8 88.4 76.5 261.2
21 02:20 7.5 79 6.33 4.1 19 20 1007.3 0 15.0 23.8 33.4 87.3 75.1 256.1
21 02:10 7.6 79 6.37 4.2 17 20 1007.4 0 15.1 23.8 33.5 87.6 75.5 257.6
21 02:00 7.6 78 6.29 4 17 20 1007.4 0 14.9 23.7 33.2 86.8 74.5 253.9
21 01:50 7.8 78 6.37 4.2 17 20 1007.7 0 15.1 23.8 33.4 87.4 75.3 257.0
21 01:40 7.7 77 6.25 3.9 17 19 1007.9 0 14.8 23.6 33.0 86.3 73.9 251.9

Last Refresh: 21-Sep-2020 18:35:19

Most of the information presented on this site is sourced from the Bureau of Meteorology.  Copyright in all material sourced from the Bureau of Meteorology resides with the Commonwealth of Australia.